Time;durP1;ratioP1;P1;durP2;ratioP2;P2;SDS_P1;SDS_P2;PMS_P1;PMS_P2;Temp;Humidity;BMP_temperature;BMP_pressure;BME280_temperature;BME280_humidity;BME280_pressure;Samples;Min_cycle;Max_cycle;Signal;HPM_P1;HPM_P2
2022/07/27 00:00:26;;;;;;;1.27;0.60;;;17.70;61.60;;;;;;6073756;23;20255;-81
2022/07/27 00:02:52;;;;;;;1.67;0.70;;;17.70;61.60;;;;;;6110569;23;20018;-81
2022/07/27 00:05:19;;;;;;;1.10;0.63;;;17.60;61.70;;;;;;6105198;23;20012;-80
2022/07/27 00:07:45;;;;;;;1.88;0.80;;;17.60;61.80;;;;;;6083884;23;20263;-80
2022/07/27 00:10:11;;;;;;;1.13;0.50;;;17.50;61.90;;;;;;6104449;23;20010;-81
2022/07/27 00:12:37;;;;;;;2.33;0.73;;;17.50;62.00;;;;;;6090301;23;20018;-81
2022/07/27 00:15:04;;;;;;;1.25;0.80;;;17.50;62.00;;;;;;6085493;23;20014;-81
2022/07/27 00:17:29;;;;;;;2.07;0.67;;;17.40;62.20;;;;;;6102947;23;20022;-80
2022/07/27 00:19:55;;;;;;;2.60;0.65;;;17.40;62.20;;;;;;6078789;23;20091;-80
2022/07/27 00:22:21;;;;;;;0.87;0.70;;;17.30;62.20;;;;;;6105699;23;20029;-81
2022/07/27 00:24:48;;;;;;;0.95;0.60;;;17.30;63.00;;;;;;6103529;23;20010;-81
2022/07/27 00:27:13;;;;;;;1.67;0.50;;;17.20;62.30;;;;;;6101374;23;20097;-81
2022/07/27 00:29:39;;;;;;;1.50;0.70;;;17.20;62.40;;;;;;6069289;23;20164;-80
2022/07/27 00:32:05;;;;;;;0.80;0.60;;;17.20;62.60;;;;;;6090330;23;20021;-80
2022/07/27 00:34:31;;;;;;;1.67;0.65;;;17.10;62.70;;;;;;6110879;23;20013;-81
2022/07/27 00:36:56;;;;;;;1.53;0.57;;;17.00;62.70;;;;;;6105832;23;20530;-80
2022/07/27 00:39:22;;;;;;;0.93;0.60;;;17.00;62.80;;;;;;6112030;23;20017;-80
2022/07/27 00:41:47;;;;;;;1.13;0.60;;;16.90;62.90;;;;;;6101801;23;20010;-80
2022/07/27 00:44:23;;;;;;;1.30;0.67;;;16.90;63.00;;;;;;6072437;23;20045;-81
2022/07/27 00:46:48;;;;;;;0.75;0.70;;;16.80;62.90;;;;;;6102757;23;20010;-80
2022/07/27 00:49:14;;;;;;;1.13;0.55;;;16.70;62.90;;;;;;6084964;23;20369;-81
2022/07/27 00:51:40;;;;;;;0.97;0.60;;;16.70;63.10;;;;;;6108931;23;20458;-81
2022/07/27 00:54:05;;;;;;;1.40;0.70;;;16.60;63.10;;;;;;6103312;23;20213;-81
2022/07/27 00:56:31;;;;;;;0.60;0.50;;;16.50;63.10;;;;;;6078105;23;20041;-80
2022/07/27 00:58:57;;;;;;;1.30;0.70;;;16.50;63.20;;;;;;6068567;23;20018;-80
2022/07/27 01:01:22;;;;;;;1.17;0.60;;;16.40;63.30;;;;;;6080550;23;20014;-80
2022/07/27 01:03:48;;;;;;;0.57;0.53;;;16.30;63.50;;;;;;6078454;23;20128;-80
2022/07/27 01:06:14;;;;;;;1.50;0.63;;;16.20;63.50;;;;;;6111722;23;20021;-80
2022/07/27 01:08:41;;;;;;;1.67;0.90;;;16.20;63.70;;;;;;6109145;23;20712;-80
2022/07/27 01:11:07;;;;;;;0.70;0.50;;;16.20;63.90;;;;;;6083386;23;20323;-80
2022/07/27 01:13:34;;;;;;;2.33;0.60;;;16.10;64.00;;;;;;6100880;23;20156;-79
2022/07/27 01:16:02;;;;;;;0.70;0.70;;;16.00;64.10;;;;;;6097861;23;20305;-79
2022/07/27 01:18:31;;;;;;;1.05;0.57;;;16.00;64.20;;;;;;6105112;23;20096;-80
2022/07/27 01:20:59;;;;;;;1.25;0.70;;;15.90;64.40;;;;;;6106916;23;20189;-80
2022/07/27 01:23:25;;;;;;;0.73;0.60;;;15.90;64.50;;;;;;6108585;23;20616;-80
2022/07/27 01:25:51;;;;;;;1.20;0.60;;;15.80;64.30;;;;;;6106454;23;20018;-80
2022/07/27 01:28:17;;;;;;;1.52;0.60;;;15.80;64.50;;;;;;6103413;23;20101;-80
2022/07/27 01:30:42;;;;;;;0.73;0.50;;;15.70;64.60;;;;;;6068457;23;20010;-80
2022/07/27 01:33:09;;;;;;;0.60;0.60;;;15.60;64.60;;;;;;6082041;23;20471;-80
2022/07/27 01:35:37;;;;;;;1.10;0.70;;;15.60;64.80;;;;;;6111584;23;20037;-80
2022/07/27 01:38:04;;;;;;;0.77;0.60;;;15.60;64.90;;;;;;6105107;23;20347;-80
2022/07/27 01:40:30;;;;;;;1.00;0.60;;;15.50;65.00;;;;;;6086390;23;20018;-80
2022/07/27 01:42:56;;;;;;;1.65;0.77;;;15.50;65.00;;;;;;6102618;23;20188;-80
2022/07/27 01:45:21;;;;;;;1.20;0.60;;;15.40;65.00;;;;;;6103375;23;20010;-80
2022/07/27 01:47:47;;;;;;;1.97;0.60;;;15.40;65.20;;;;;;6103240;23;20323;-79
2022/07/27 01:50:13;;;;;;;1.58;0.60;;;15.30;65.20;;;;;;6106666;23;20014;-80
2022/07/27 01:52:39;;;;;;;0.73;0.60;;;15.30;65.40;;;;;;6110559;23;20018;-80
2022/07/27 01:55:07;;;;;;;0.70;0.50;;;15.30;65.40;;;;;;6111441;23;20014;-80
2022/07/27 01:57:32;;;;;;;2.00;0.70;;;15.30;65.70;;;;;;6101334;23;20446;-80
2022/07/27 01:59:59;;;;;;;0.70;0.50;;;15.20;65.40;;;;;;6097657;23;20010;-80
2022/07/27 02:02:24;;;;;;;1.05;0.50;;;15.20;65.60;;;;;;6105255;23;20022;-80
2022/07/27 02:04:50;;;;;;;0.63;0.50;;;15.10;65.60;;;;;;6108404;23;20563;-80
2022/07/27 02:07:15;;;;;;;1.83;0.63;;;15.10;65.80;;;;;;6112476;23;20439;-80
2022/07/27 02:09:41;;;;;;;0.90;0.60;;;15.10;65.90;;;;;;6104938;23;20037;-80
2022/07/27 02:14:51;;;;;;;1.10;0.47;;;15.00;65.90;;;;;;6103437;23;20014;-80
2022/07/27 02:17:16;;;;;;;1.83;0.60;;;15.00;65.90;;;;;;6096679;23;20014;-80
2022/07/27 02:19:42;;;;;;;1.37;0.63;;;14.90;66.00;;;;;;6106247;23;20010;-80
2022/07/27 02:22:07;;;;;;;0.77;0.50;;;14.90;66.10;;;;;;6111260;23;20014;-80
2022/07/27 02:24:34;;;;;;;0.60;0.60;;;14.80;66.10;;;;;;6112456;23;20348;-80
2022/07/27 02:26:59;;;;;;;1.55;0.60;;;14.80;66.20;;;;;;6109109;23;20241;-80
2022/07/27 02:29:25;;;;;;;1.03;0.50;;;14.80;66.30;;;;;;6106995;23;20029;-80
2022/07/27 02:31:50;;;;;;;0.60;0.60;;;14.70;66.40;;;;;;6069634;23;20291;-80
2022/07/27 02:34:16;;;;;;;0.57;0.43;;;14.70;66.40;;;;;;6108584;23;20018;-80
2022/07/27 02:36:42;;;;;;;0.75;0.70;;;14.70;66.60;;;;;;6109083;23;20367;-80
2022/07/27 02:39:07;;;;;;;1.07;0.67;;;14.60;66.70;;;;;;6109989;23;20041;-80
2022/07/27 02:41:33;;;;;;;0.80;0.70;;;14.60;66.80;;;;;;6111573;23;20045;-80
2022/07/27 02:43:58;;;;;;;1.23;0.80;;;14.60;66.90;;;;;;6079034;23;20010;-81
2022/07/27 02:46:24;;;;;;;0.97;0.70;;;14.60;67.00;;;;;;6104205;23;20444;-80
2022/07/27 02:48:49;;;;;;;2.03;0.70;;;14.50;67.10;;;;;;6066451;23;20018;-80
2022/07/27 02:51:15;;;;;;;0.73;0.60;;;14.50;67.10;;;;;;6112567;23;20010;-80
2022/07/27 02:53:41;;;;;;;1.40;0.70;;;14.50;67.10;;;;;;6109763;23;20020;-80
2022/07/27 02:56:06;;;;;;;0.77;0.50;;;14.50;67.10;;;;;;6104944;23;20035;-80
2022/07/27 02:58:32;;;;;;;1.03;0.70;;;14.40;67.10;;;;;;6110555;23;20029;-79
2022/07/27 03:00:57;;;;;;;1.20;0.70;;;14.40;67.20;;;;;;6098475;23;20013;-80
2022/07/27 03:03:23;;;;;;;0.97;0.60;;;14.40;67.20;;;;;;6098196;23;20018;-80
2022/07/27 03:05:49;;;;;;;0.80;0.60;;;14.40;67.20;;;;;;6078706;23;20201;-80
2022/07/27 03:08:14;;;;;;;1.70;0.70;;;14.30;67.20;;;;;;6086466;23;20243;-80
2022/07/27 03:10:40;;;;;;;1.20;0.60;;;14.30;67.30;;;;;;6107426;23;20020;-80
2022/07/27 03:13:06;;;;;;;1.48;0.70;;;14.30;67.40;;;;;;6080479;23;20041;-80
2022/07/27 03:15:33;;;;;;;1.63;0.63;;;14.30;67.50;;;;;;6105004;23;20046;-80
2022/07/27 03:17:59;;;;;;;2.13;0.80;;;14.20;67.60;;;;;;6076410;23;20037;-80
2022/07/27 03:20:25;;;;;;;1.33;0.60;;;14.20;67.50;;;;;;6073771;23;20014;-80
2022/07/27 03:22:50;;;;;;;1.40;0.70;;;14.20;67.60;;;;;;6112772;23;20044;-81
2022/07/27 03:25:16;;;;;;;1.63;0.60;;;14.20;67.70;;;;;;6081580;23;20025;-80
2022/07/27 03:27:42;;;;;;;0.75;0.60;;;14.20;67.70;;;;;;6107566;23;20048;-80
2022/07/27 03:30:08;;;;;;;1.00;0.70;;;14.10;67.60;;;;;;6076591;23;20336;-80
2022/07/27 03:32:33;;;;;;;2.67;0.63;;;14.10;67.60;;;;;;6084624;23;20336;-80
2022/07/27 03:34:59;;;;;;;0.93;0.60;;;14.10;67.70;;;;;;6071573;23;20033;-80
2022/07/27 03:37:24;;;;;;;0.68;0.60;;;14.00;67.70;;;;;;6106197;23;20535;-80
2022/07/27 03:39:50;;;;;;;1.23;0.70;;;14.00;67.70;;;;;;6111848;23;20030;-80
2022/07/27 03:42:16;;;;;;;0.55;0.55;;;14.00;67.80;;;;;;6077990;23;20110;-80
2022/07/27 03:44:42;;;;;;;3.97;0.80;;;13.90;67.80;;;;;;6111719;23;20010;-80
2022/07/27 03:47:07;;;;;;;1.70;0.70;;;13.90;67.90;;;;;;6101793;23;20029;-80
2022/07/27 03:49:33;;;;;;;1.27;0.70;;;13.90;68.00;;;;;;6096405;23;20403;-80
2022/07/27 03:51:59;;;;;;;1.15;0.70;;;13.80;68.00;;;;;;6105762;23;20016;-80
2022/07/27 03:54:24;;;;;;;1.87;0.80;;;13.80;68.20;;;;;;6083689;23;20359;-80
2022/07/27 03:56:50;;;;;;;0.80;0.70;;;13.80;68.20;;;;;;6084790;23;20652;-80
2022/07/27 03:59:15;;;;;;;0.77;0.63;;;13.70;68.30;;;;;;6101425;23;20157;-80
2022/07/27 04:01:41;;;;;;;0.97;0.63;;;13.70;68.40;;;;;;6079567;23;20049;-80
2022/07/27 04:04:07;;;;;;;1.02;0.70;;;13.70;68.60;;;;;;6071671;23;20006;-80
2022/07/27 04:06:32;;;;;;;0.60;0.60;;;13.70;68.70;;;;;;6103345;23;20763;-80
2022/07/27 04:08:58;;;;;;;0.65;0.60;;;13.70;68.70;;;;;;6083215;23;20017;-80
2022/07/27 04:11:24;;;;;;;0.63;0.63;;;13.70;68.80;;;;;;6103789;23;20732;-80
2022/07/27 04:13:50;;;;;;;0.90;0.60;;;13.70;68.80;;;;;;6078332;23;20241;-80
2022/07/27 04:16:16;;;;;;;1.00;0.68;;;13.60;68.80;;;;;;6100791;23;20289;-80
2022/07/27 04:18:42;;;;;;;1.10;0.60;;;13.60;68.70;;;;;;6084324;23;20064;-80
2022/07/27 04:21:08;;;;;;;1.15;0.60;;;13.60;68.90;;;;;;6095327;23;20081;-80
2022/07/27 04:23:34;;;;;;;0.75;0.60;;;13.60;68.90;;;;;;6079114;23;20018;-80
2022/07/27 04:26:00;;;;;;;0.67;0.50;;;13.60;69.10;;;;;;6082211;23;20013;-80
2022/07/27 04:28:26;;;;;;;1.20;0.63;;;13.60;69.00;;;;;;6103215;23;20866;-80
2022/07/27 04:30:51;;;;;;;0.90;0.65;;;13.60;69.10;;;;;;6107719;23;20405;-80
2022/07/27 04:33:17;;;;;;;1.10;0.60;;;13.50;69.20;;;;;;6099382;23;20670;-80
2022/07/27 04:35:43;;;;;;;1.10;0.80;;;13.50;69.30;;;;;;6073537;23;20076;-80
2022/07/27 04:38:09;;;;;;;1.63;0.70;;;13.50;69.30;;;;;;6101115;23;20264;-80
2022/07/27 04:40:34;;;;;;;1.27;0.60;;;13.50;69.30;;;;;;6110831;23;20013;-80
2022/07/27 04:43:02;;;;;;;1.23;0.70;;;13.50;69.50;;;;;;6108285;23;20045;-80
2022/07/27 04:45:28;;;;;;;0.70;0.70;;;13.50;69.60;;;;;;6106658;23;20245;-80
2022/07/27 04:47:54;;;;;;;0.63;0.60;;;13.50;69.60;;;;;;6105542;23;20061;-80
2022/07/27 04:50:20;;;;;;;0.70;0.60;;;13.50;69.70;;;;;;6064413;23;20723;-80
2022/07/27 04:52:45;;;;;;;1.50;0.60;;;13.50;69.70;;;;;;6084465;23;20081;-80
2022/07/27 04:55:12;;;;;;;0.93;0.70;;;13.50;69.80;;;;;;6107134;23;20208;-80
2022/07/27 04:57:40;;;;;;;0.68;0.60;;;13.50;70.00;;;;;;6084875;23;20052;-80
2022/07/27 05:00:07;;;;;;;0.95;0.68;;;13.60;70.10;;;;;;6097300;23;20069;-80
2022/07/27 05:02:33;;;;;;;1.00;0.77;;;13.50;70.20;;;;;;6103079;23;20028;-80
2022/07/27 05:04:59;;;;;;;1.63;0.67;;;13.60;70.30;;;;;;6067998;23;20014;-80
2022/07/27 05:07:25;;;;;;;1.00;0.70;;;13.60;70.50;;;;;;6096614;23;20352;-80
2022/07/27 05:09:50;;;;;;;0.93;0.70;;;13.60;70.60;;;;;;6100567;23;20484;-80
2022/07/27 05:12:16;;;;;;;0.70;0.60;;;13.60;70.60;;;;;;6103239;23;20100;-80
2022/07/27 05:14:42;;;;;;;1.63;0.80;;;13.70;70.80;;;;;;6111055;23;20534;-80
2022/07/27 05:17:07;;;;;;;0.93;0.70;;;13.70;70.90;;;;;;6089199;23;20212;-80
2022/07/27 05:19:33;;;;;;;1.07;0.80;;;13.70;71.00;;;;;;6103524;23;20018;-81
2022/07/27 05:21:59;;;;;;;0.93;0.70;;;13.80;71.20;;;;;;6096665;23;20352;-80
2022/07/27 05:24:25;;;;;;;1.30;0.77;;;13.80;71.40;;;;;;6098963;23;20048;-80
2022/07/27 05:26:51;;;;;;;1.30;0.70;;;13.90;71.40;;;;;;6109601;23;20006;-80
2022/07/27 05:29:17;;;;;;;1.55;0.80;;;13.90;71.50;;;;;;6110381;23;20045;-80
2022/07/27 05:31:43;;;;;;;1.88;0.80;;;14.00;71.70;;;;;;6107889;23;20333;-80
2022/07/27 05:34:09;;;;;;;1.23;0.80;;;14.00;71.80;;;;;;6102022;23;20014;-80
2022/07/27 05:36:34;;;;;;;0.93;0.70;;;14.10;71.90;;;;;;6101149;23;20440;-80
2022/07/27 05:39:00;;;;;;;1.83;0.73;;;14.20;72.00;;;;;;6069598;23;20014;-81
2022/07/27 05:41:26;;;;;;;1.45;0.75;;;14.20;72.10;;;;;;6102374;23;20010;-79
2022/07/27 05:43:56;;;;;;;2.05;0.80;;;14.30;72.30;;;;;;6106577;23;20025;-79
2022/07/27 05:46:22;;;;;;;1.03;0.70;;;14.40;72.50;;;;;;6112238;23;20006;-79
2022/07/27 05:48:48;;;;;;;1.88;0.80;;;14.40;72.60;;;;;;6077956;23;20022;-79
2022/07/27 05:51:13;;;;;;;1.35;0.80;;;14.50;72.70;;;;;;6106972;23;20502;-80
2022/07/27 05:53:39;;;;;;;1.20;0.90;;;14.60;72.80;;;;;;6093575;23;20013;-79
2022/07/27 05:56:06;;;;;;;1.88;0.90;;;14.70;72.80;;;;;;6070515;23;20018;-79
2022/07/27 05:58:33;;;;;;;1.40;1.00;;;14.70;73.60;;;;;;6085024;23;20018;-79
2022/07/27 06:00:59;;;;;;;1.70;0.80;;;14.90;73.00;;;;;;6093137;23;20089;-79
2022/07/27 06:03:25;;;;;;;2.00;1.02;;;14.90;73.00;;;;;;6077962;23;20474;-79
2022/07/27 06:05:50;;;;;;;2.10;1.15;;;15.00;73.10;;;;;;6077941;23;20010;-79
2022/07/27 06:08:16;;;;;;;2.20;1.00;;;15.10;73.20;;;;;;6079665;23;20069;-79
2022/07/27 06:10:42;;;;;;;2.60;1.00;;;15.20;74.00;;;;;;6092955;23;20209;-79
2022/07/27 06:13:10;;;;;;;1.17;0.80;;;15.30;73.20;;;;;;6102820;23;20037;-79
2022/07/27 06:15:37;;;;;;;1.55;0.90;;;15.30;73.40;;;;;;6108196;23;20014;-79
2022/07/27 06:18:05;;;;;;;1.60;0.80;;;15.40;73.30;;;;;;6109346;23;20511;-80
2022/07/27 06:20:31;;;;;;;1.75;0.90;;;15.50;73.30;;;;;;6076405;23;20180;-79
2022/07/27 06:22:59;;;;;;;1.48;0.80;;;15.60;73.40;;;;;;6080388;23;20014;-79
2022/07/27 06:25:25;;;;;;;1.60;0.80;;;15.70;73.60;;;;;;6099098;23;20010;-79
2022/07/27 06:27:52;;;;;;;1.85;0.80;;;15.80;73.60;;;;;;6101971;23;20209;-79
2022/07/27 06:30:19;;;;;;;1.30;0.90;;;15.90;73.60;;;;;;6088191;23;20098;-79
2022/07/27 06:32:45;;;;;;;1.65;0.80;;;16.00;73.60;;;;;;6089286;23;20505;-79
2022/07/27 06:35:12;;;;;;;1.30;0.80;;;16.20;73.70;;;;;;6080062;23;20013;-79
2022/07/27 06:37:42;;;;;;;1.30;0.80;;;16.20;73.70;;;;;;6102414;23;20157;-79
2022/07/27 06:40:09;;;;;;;1.35;0.70;;;16.40;73.70;;;;;;6079734;23;20006;-79
2022/07/27 06:42:35;;;;;;;1.90;0.98;;;16.50;73.90;;;;;;6087690;23;20006;-79
2022/07/27 06:45:00;;;;;;;2.20;0.80;;;16.60;74.10;;;;;;6115476;23;20009;-79
2022/07/27 06:47:26;;;;;;;1.85;1.00;;;16.70;74.30;;;;;;6112994;23;20064;-79
2022/07/27 06:49:52;;;;;;;2.53;0.90;;;16.90;74.80;;;;;;6104806;23;20507;-79
2022/07/27 06:52:17;;;;;;;2.17;0.98;;;17.00;75.00;;;;;;6113744;23;20362;-79
2022/07/27 06:54:43;;;;;;;1.63;0.93;;;17.30;75.10;;;;;;6095719;23;20014;-79
2022/07/27 06:57:09;;;;;;;1.60;1.00;;;17.40;75.30;;;;;;6101921;23;20100;-79
2022/07/27 06:59:35;;;;;;;1.50;1.00;;;17.60;75.40;;;;;;6073690;23;20148;-79
2022/07/27 07:02:00;;;;;;;3.00;1.10;;;17.90;75.40;;;;;;6069749;23;20250;-79
2022/07/27 07:04:26;;;;;;;3.23;0.97;;;18.10;75.30;;;;;;6078938;23;20029;-79
2022/07/27 07:06:52;;;;;;;1.50;0.90;;;18.30;75.30;;;;;;6100501;23;20134;-79
2022/07/27 07:09:18;;;;;;;1.80;0.90;;;18.50;75.10;;;;;;6074575;23;20450;-79
2022/07/27 07:11:43;;;;;;;1.10;0.90;;;18.70;74.90;;;;;;6061367;23;20479;-79
2022/07/27 07:14:09;;;;;;;1.52;0.90;;;18.90;74.50;;;;;;6102504;23;20049;-79
2022/07/27 07:16:35;;;;;;;1.42;1.00;;;19.10;74.20;;;;;;6108172;23;20010;-79
2022/07/27 07:19:00;;;;;;;1.27;1.00;;;19.30;74.00;;;;;;6086967;23;20320;-79
2022/07/27 07:21:26;;;;;;;1.47;1.03;;;19.40;73.90;;;;;;6103144;23;20363;-79
2022/07/27 07:23:52;;;;;;;2.08;0.80;;;19.60;73.70;;;;;;6082237;23;20044;-79
2022/07/27 07:26:18;;;;;;;1.35;0.95;;;19.70;73.90;;;;;;6102157;23;20060;-79
2022/07/27 07:28:43;;;;;;;1.47;0.80;;;19.90;72.60;;;;;;6090603;23;20014;-79
2022/07/27 07:31:09;;;;;;;1.60;0.80;;;20.00;72.00;;;;;;6113557;23;20109;-79
2022/07/27 07:33:35;;;;;;;1.03;0.80;;;20.00;71.50;;;;;;6100959;23;20349;-79
2022/07/27 07:36:01;;;;;;;1.23;0.77;;;20.10;72.00;;;;;;6098963;23;20316;-80
2022/07/27 07:38:27;;;;;;;1.10;0.70;;;20.20;70.90;;;;;;6105629;23;20018;-79
2022/07/27 07:40:53;;;;;;;0.90;0.70;;;20.30;70.50;;;;;;6082741;23;20014;-80
2022/07/27 07:43:18;;;;;;;2.43;0.80;;;20.30;70.30;;;;;;6098581;23;20017;-79
2022/07/27 07:45:44;;;;;;;1.10;0.70;;;20.30;70.30;;;;;;6071231;23;20041;-80
2022/07/27 07:48:10;;;;;;;0.80;0.60;;;20.40;70.70;;;;;;6116696;23;20025;-79
2022/07/27 07:50:36;;;;;;;1.95;0.88;;;20.50;71.10;;;;;;6107725;23;20018;-79
2022/07/27 07:53:02;;;;;;;1.00;0.70;;;20.60;71.50;;;;;;6109318;23;20228;-79
2022/07/27 07:55:28;;;;;;;1.13;0.77;;;20.80;71.90;;;;;;6115445;23;20022;-79
2022/07/27 07:57:55;;;;;;;1.75;0.95;;;21.00;71.90;;;;;;6089817;23;20018;-79
2022/07/27 08:00:22;;;;;;;1.05;0.80;;;21.20;71.80;;;;;;6104425;23;20015;-80
2022/07/27 08:02:53;;;;;;;2.53;0.80;;;21.50;70.70;;;;;;6104566;23;20022;-80
2022/07/27 08:05:20;;;;;;;2.65;0.70;;;21.60;70.50;;;;;;6114520;23;20006;-80
2022/07/27 08:07:46;;;;;;;0.60;0.52;;;21.90;71.50;;;;;;6107904;23;20364;-80
2022/07/27 08:10:14;;;;;;;0.70;0.50;;;22.20;72.00;;;;;;6089243;23;20021;-80
2022/07/27 08:12:43;;;;;;;0.93;0.50;;;22.60;70.90;;;;;;6093889;23;20065;-78
2022/07/27 08:15:10;;;;;;;1.43;0.60;;;22.80;69.90;;;;;;6085903;23;20105;-80
2022/07/27 08:17:36;;;;;;;1.17;0.60;;;23.10;70.40;;;;;;6074286;23;20405;-79
2022/07/27 08:20:02;;;;;;;1.00;0.60;;;23.50;70.50;;;;;;6107054;23;20014;-80
2022/07/27 08:22:28;;;;;;;0.68;0.68;;;23.80;69.30;;;;;;6110775;23;20014;-80
2022/07/27 08:24:53;;;;;;;0.70;0.57;;;24.00;67.90;;;;;;6077452;23;20606;-80
2022/07/27 08:27:19;;;;;;;1.27;0.60;;;24.30;67.00;;;;;;6105370;23;20009;-80
2022/07/27 08:29:44;;;;;;;1.70;0.80;;;24.50;67.70;;;;;;6094831;23;20105;-80
2022/07/27 08:32:10;;;;;;;0.60;0.60;;;24.80;67.90;;;;;;6074501;23;20082;-79
2022/07/27 08:34:36;;;;;;;1.10;0.80;;;25.10;67.10;;;;;;6108576;23;20016;-81
2022/07/27 08:37:01;;;;;;;0.97;0.70;;;25.30;66.70;;;;;;6109763;23;20384;-79
2022/07/27 08:39:27;;;;;;;0.82;0.60;;;25.50;65.10;;;;;;6107654;23;20056;-81
2022/07/27 08:41:53;;;;;;;0.77;0.60;;;25.60;63.40;;;;;;6103005;23;20211;-80
2022/07/27 08:44:23;;;;;;;0.85;0.70;;;25.60;61.90;;;;;;6067458;23;20124;-80
2022/07/27 08:46:50;;;;;;;1.20;0.73;;;25.50;60.30;;;;;;6077872;23;20021;-80
2022/07/27 08:49:16;;;;;;;1.00;0.70;;;25.50;62.10;;;;;;6070887;23;20242;-81
2022/07/27 08:51:43;;;;;;;0.93;0.73;;;25.70;63.30;;;;;;6113520;23;20018;-80
2022/07/27 08:54:09;;;;;;;1.58;0.77;;;25.80;62.70;;;;;;6082756;23;20248;-80
2022/07/27 08:56:36;;;;;;;1.05;0.85;;;26.00;63.40;;;;;;6101448;23;20014;-80
2022/07/27 08:59:03;;;;;;;0.90;0.70;;;26.20;62.10;;;;;;6099510;23;20514;-80
2022/07/27 09:01:31;;;;;;;0.90;0.70;;;26.30;60.40;;;;;;6083933;23;20014;-79
2022/07/27 09:03:57;;;;;;;0.75;0.70;;;26.20;59.40;;;;;;6099674;23;20017;-80
2022/07/27 09:06:46;;;;;;;1.48;0.85;;;26.30;61.00;;;;;;6107463;23;20098;-81
2022/07/27 09:09:13;;;;;;;0.85;0.70;;;26.50;59.70;;;;;;6099772;23;20323;-80
2022/07/27 09:11:39;;;;;;;1.35;0.85;;;26.90;63.30;;;;;;6084527;23;20200;-80
2022/07/27 09:14:08;;;;;;;1.37;0.80;;;27.30;63.30;;;;;;6102219;23;20128;-81
2022/07/27 09:16:35;;;;;;;0.95;0.70;;;27.80;62.80;;;;;;6100030;23;20494;-79
2022/07/27 09:19:06;;;;;;;1.55;1.00;;;28.30;62.20;;;;;;6077702;23;20020;-80
2022/07/27 09:21:33;;;;;;;0.70;0.70;;;28.80;59.70;;;;;;6105683;23;20013;-80
2022/07/27 09:24:13;;;;;;;1.23;0.77;;;29.30;60.60;;;;;;6108826;23;20017;-81
2022/07/27 09:26:40;;;;;;;1.17;0.80;;;29.80;57.60;;;;;;6077724;23;20037;-80
2022/07/27 09:29:13;;;;;;;0.93;0.70;;;30.20;58.30;;;;;;6099391;23;20205;-79
2022/07/27 09:31:50;;;;;;;0.75;0.70;;;30.50;54.60;;;;;;6100280;23;20392;-80
2022/07/27 09:34:32;;;;;;;0.77;0.70;;;30.50;52.30;;;;;;6079237;23;20298;-80
2022/07/27 09:36:58;;;;;;;5.72;0.90;;;30.30;50.00;;;;;;6098069;23;20113;-80
2022/07/27 09:39:26;;;;;;;1.20;0.70;;;29.90;50.80;;;;;;6087419;23;20016;-80
2022/07/27 09:41:58;;;;;;;0.85;0.70;;;29.60;50.00;;;;;;6108576;23;20018;-80
2022/07/27 09:44:35;;;;;;;0.63;0.63;;;29.20;49.40;;;;;;6080766;23;20392;-79
2022/07/27 09:47:25;;;;;;;0.85;0.70;;;28.80;48.70;;;;;;6094825;23;20750;-79
2022/07/27 09:49:52;;;;;;;0.70;0.70;;;28.40;48.50;;;;;;6108476;23;20018;-79
2022/07/27 09:52:26;;;;;;;0.93;0.60;;;28.00;50.30;;;;;;6101154;23;20204;-79
2022/07/27 09:54:53;;;;;;;1.58;0.80;;;27.80;49.40;;;;;;6108786;23;20044;-79
2022/07/27 09:57:18;;;;;;;1.70;0.98;;;27.50;50.30;;;;;;6101671;23;20553;-80
2022/07/27 09:59:45;;;;;;;1.63;0.90;;;27.30;50.50;;;;;;6110730;23;20088;-80
2022/07/27 10:02:13;;;;;;;1.00;0.80;;;27.20;51.20;;;;;;6112101;23;20097;-80
2022/07/27 10:04:39;;;;;;;1.13;0.77;;;27.10;51.30;;;;;;6072291;23;20475;-80
2022/07/27 10:07:05;;;;;;;1.45;1.00;;;27.20;53.20;;;;;;6102235;23;20014;-80
2022/07/27 10:09:32;;;;;;;1.65;0.80;;;27.40;54.10;;;;;;6103103;23;20018;-80
2022/07/27 10:11:58;;;;;;;0.93;0.83;;;27.80;54.50;;;;;;6102239;23;20274;-80
2022/07/27 10:14:24;;;;;;;1.23;0.70;;;28.20;54.90;;;;;;6088932;23;20017;-80
2022/07/27 10:16:51;;;;;;;1.30;0.80;;;28.70;55.00;;;;;;6105886;23;20045;-81
2022/07/27 10:19:42;;;;;;;0.82;0.80;;;29.20;53.90;;;;;;6072500;23;20151;-80
2022/07/27 10:22:08;;;;;;;0.82;0.70;;;29.70;52.70;;;;;;6098139;23;20338;-79
2022/07/27 10:24:35;;;;;;;1.50;0.77;;;30.00;51.70;;;;;;6107314;23;20010;-80
2022/07/27 10:27:28;;;;;;;0.82;0.80;;;30.20;50.50;;;;;;6081913;23;20014;-80
2022/07/27 10:29:55;;;;;;;0.80;0.80;;;30.40;48.40;;;;;;6111328;23;20012;-81
2022/07/27 10:32:29;;;;;;;0.80;0.80;;;30.50;49.20;;;;;;6106788;23;20507;-79
2022/07/27 10:34:55;;;;;;;0.75;0.60;;;30.50;47.00;;;;;;6095076;23;20121;-80
2022/07/27 10:37:31;;;;;;;1.10;0.60;;;30.40;47.30;;;;;;6111079;23;20058;-80
2022/07/27 10:42:46;;;;;;;1.87;0.70;;;30.00;46.10;;;;;;6114275;23;20010;-80
2022/07/27 10:45:16;;;;;;;1.10;0.70;;;29.80;45.70;;;;;;6104180;23;20093;-79
2022/07/27 10:47:48;;;;;;;0.90;0.70;;;29.60;45.60;;;;;;6106768;23;20630;-79
2022/07/27 10:50:14;;;;;;;1.35;1.00;;;29.40;46.20;;;;;;6074604;23;20025;-79
2022/07/27 10:52:43;;;;;;;2.23;0.90;;;29.20;46.40;;;;;;6106741;23;20144;-80
2022/07/27 10:55:35;;;;;;;1.27;0.77;;;29.20;47.40;;;;;;6078023;23;20020;-80
2022/07/27 10:58:09;;;;;;;1.25;0.88;;;29.30;48.10;;;;;;6073755;23;20021;-80
2022/07/27 11:00:50;;;;;;;1.40;0.90;;;29.60;49.90;;;;;;6083363;23;20041;-80
2022/07/27 11:03:23;;;;;;;1.50;0.83;;;30.00;48.10;;;;;;6071394;23;20873;-80
2022/07/27 11:06:17;;;;;;;1.42;0.90;;;30.30;47.40;;;;;;6072432;23;20014;-79
2022/07/27 11:08:44;;;;;;;0.80;0.80;;;30.70;46.40;;;;;;6088860;23;20018;-79
2022/07/27 11:11:19;;;;;;;1.38;0.85;;;31.00;47.60;;;;;;6072237;23;20474;-80
2022/07/27 11:13:48;;;;;;;2.35;1.10;;;31.20;46.10;;;;;;6114541;23;20674;-79
2022/07/27 11:16:18;;;;;;;2.03;0.83;;;31.30;45.80;;;;;;6075379;23;20014;-80
2022/07/27 11:18:55;;;;;;;1.10;0.90;;;31.20;44.70;;;;;;6108754;23;20014;-79
2022/07/27 11:21:26;;;;;;;1.35;0.70;;;31.00;43.20;;;;;;6065382;23;20013;-80
2022/07/27 11:24:04;;;;;;;1.80;0.80;;;30.80;43.60;;;;;;6111860;23;20018;-80
2022/07/27 11:26:37;;;;;;;0.90;0.70;;;30.50;42.30;;;;;;6069292;23;20037;-79
2022/07/27 11:29:07;;;;;;;1.60;0.87;;;30.20;42.20;;;;;;6106587;23;20386;-79
2022/07/27 11:31:34;;;;;;;1.17;0.80;;;29.90;42.40;;;;;;6078804;23;20022;-79
2022/07/27 11:33:59;;;;;;;0.73;0.70;;;29.50;42.60;;;;;;6104840;23;20104;-79
2022/07/27 11:36:39;;;;;;;1.17;0.70;;;29.20;42.90;;;;;;6065498;23;20487;-79
2022/07/27 11:39:07;;;;;;;1.10;0.70;;;28.90;42.50;;;;;;6062080;23;20046;-78
2022/07/27 11:41:35;;;;;;;2.03;0.77;;;28.80;43.30;;;;;;6113017;23;20013;-79
2022/07/27 11:44:04;;;;;;;0.70;0.70;;;28.60;43.80;;;;;;6110199;23;20466;-80
2022/07/27 11:46:32;;;;;;;1.45;0.90;;;28.70;45.00;;;;;;6082493;23;20300;-81
2022/07/27 11:49:06;;;;;;;1.20;0.80;;;28.90;45.90;;;;;;6106383;23;20092;-80
2022/07/27 11:51:33;;;;;;;1.00;0.90;;;29.20;46.10;;;;;;6079967;23;20347;-80
2022/07/27 11:54:04;;;;;;;1.67;0.90;;;29.60;46.90;;;;;;6093499;23;20021;-80
2022/07/27 11:56:33;;;;;;;1.30;0.80;;;29.90;46.40;;;;;;6073264;23;20018;-79
2022/07/27 11:59:14;;;;;;;1.05;0.80;;;30.20;45.50;;;;;;6082469;23;20448;-80
2022/07/27 12:01:52;;;;;;;1.00;0.70;;;30.30;44.20;;;;;;6097235;23;20389;-80
2022/07/27 12:04:20;;;;;;;1.20;1.00;;;30.30;43.70;;;;;;6112795;23;20009;-80
2022/07/27 12:07:18;;;;;;;1.10;0.90;;;30.50;44.90;;;;;;6076793;23;20016;-81
2022/07/27 12:09:50;;;;;;;0.80;0.80;;;30.70;43.30;;;;;;6089793;23;20033;-79
2022/07/27 12:12:26;;;;;;;1.13;0.95;;;30.80;43.80;;;;;;6097082;23;20394;-80
2022/07/27 12:15:12;;;;;;;1.33;0.90;;;30.90;43.40;;;;;;6085058;23;20456;-80
2022/07/27 12:17:39;;;;;;;1.00;0.90;;;30.90;41.70;;;;;;6105651;23;20088;-80
2022/07/27 12:20:05;;;;;;;1.48;1.00;;;30.80;42.50;;;;;;6112684;23;20356;-80
2022/07/27 12:22:39;;;;;;;1.15;0.82;;;30.80;42.60;;;;;;6097890;23;20014;-80
2022/07/27 12:25:17;;;;;;;2.50;1.00;;;30.80;42.30;;;;;;6110460;23;20096;-80
2022/07/27 12:27:59;;;;;;;1.42;0.90;;;31.00;43.00;;;;;;6072203;23;20037;-80
2022/07/27 12:30:36;;;;;;;1.02;0.75;;;31.20;41.90;;;;;;6075143;23;20046;-80
2022/07/27 12:33:07;;;;;;;0.80;0.80;;;31.30;42.10;;;;;;6110478;23;20235;-80
2022/07/27 12:35:45;;;;;;;1.50;0.98;;;31.50;42.00;;;;;;6110151;23;20116;-80
2022/07/27 12:38:11;;;;;;;1.10;0.80;;;31.50;40.50;;;;;;6102734;23;20122;-79
2022/07/27 12:40:48;;;;;;;0.93;0.80;;;31.40;40.90;;;;;;6098767;23;20014;-79
2022/07/27 12:43:24;;;;;;;1.10;1.00;;;31.30;39.20;;;;;;6076987;23;20435;-80
2022/07/27 12:45:53;;;;;;;0.90;0.90;;;31.10;39.40;;;;;;6115608;23;20009;-80
2022/07/27 12:48:24;;;;;;;0.95;0.70;;;31.00;39.80;;;;;;6106048;23;20018;-80
2022/07/27 12:51:04;;;;;;;0.87;0.77;;;30.90;39.90;;;;;;6104424;23;20022;-80
2022/07/27 12:53:31;;;;;;;1.27;0.70;;;30.80;39.10;;;;;;6076964;23;20021;-80
2022/07/27 12:55:59;;;;;;;1.25;0.90;;;30.60;39.60;;;;;;6069281;23;20025;-80